sensor_id;sensor_type;location;lat;lon;timestamp;pressure;altitude;pressure_sealevel;temperature;humidity
21760;BME280;11041;50.854;20.580;2023-05-19T00:01:13;99720.84;;;7.95;100.00
21760;BME280;11041;50.854;20.580;2023-05-19T00:03:58;99716.44;;;7.94;99.82
21760;BME280;11041;50.854;20.580;2023-05-19T00:06:30;99719.19;;;7.94;100.00
21760;BME280;11041;50.854;20.580;2023-05-19T00:09:01;99723.03;;;7.87;100.00
21760;BME280;11041;50.854;20.580;2023-05-19T00:11:29;99721.38;;;7.81;100.00
21760;BME280;11041;50.854;20.580;2023-05-19T00:13:58;99713.72;;;7.78;100.00
21760;BME280;11041;50.854;20.580;2023-05-19T00:16:27;99712.91;;;7.78;100.00
21760;BME280;11041;50.854;20.580;2023-05-19T00:19:02;99701.41;;;7.76;100.00
21760;BME280;11041;50.854;20.580;2023-05-19T00:21:30;99707.19;;;7.79;100.00
21760;BME280;11041;50.854;20.580;2023-05-19T00:23:58;99714.28;;;7.90;100.00
21760;BME280;11041;50.854;20.580;2023-05-19T00:26:31;99706.59;;;7.93;100.00
21760;BME280;11041;50.854;20.580;2023-05-19T00:28:58;99704.69;;;7.88;100.00
21760;BME280;11041;50.854;20.580;2023-05-19T00:31:24;99716.44;;;7.94;100.00
21760;BME280;11041;50.854;20.580;2023-05-19T00:33:51;99702.78;;;7.88;100.00
21760;BME280;11041;50.854;20.580;2023-05-19T00:36:18;99694.56;;;7.88;100.00
21760;BME280;11041;50.854;20.580;2023-05-19T00:38:45;99697.59;;;7.92;100.00
21760;BME280;11041;50.854;20.580;2023-05-19T00:41:11;99706.03;;;8.01;100.00
21760;BME280;11041;50.854;20.580;2023-05-19T00:43:38;99702.25;;;7.97;100.00
21760;BME280;11041;50.854;20.580;2023-05-19T00:46:07;99682.25;;;7.91;100.00
21760;BME280;11041;50.854;20.580;2023-05-19T00:48:33;99701.44;;;7.96;100.00
21760;BME280;11041;50.854;20.580;2023-05-19T00:51:02;99698.41;;;7.87;100.00
21760;BME280;11041;50.854;20.580;2023-05-19T00:53:36;99714.00;;;7.97;100.00
21760;BME280;11041;50.854;20.580;2023-05-19T00:56:03;99710.44;;;7.97;100.00
21760;BME280;11041;50.854;20.580;2023-05-19T00:58:31;99698.66;;;7.91;100.00
21760;BME280;11041;50.854;20.580;2023-05-19T01:00:59;99693.19;;;7.91;100.00
21760;BME280;11041;50.854;20.580;2023-05-19T01:03:32;99708.25;;;7.94;100.00
21760;BME280;11041;50.854;20.580;2023-05-19T01:06:03;99691.56;;;7.90;100.00
21760;BME280;11041;50.854;20.580;2023-05-19T01:08:35;99696.22;;;7.89;100.00
21760;BME280;11041;50.854;20.580;2023-05-19T01:11:08;99701.13;;;7.93;100.00
21760;BME280;11041;50.854;20.580;2023-05-19T01:13:35;99697.84;;;7.90;100.00
21760;BME280;11041;50.854;20.580;2023-05-19T01:16:33;99701.69;;;8.00;100.00
21760;BME280;11041;50.854;20.580;2023-05-19T01:22:21;99705.50;;;7.94;100.00
21760;BME280;11041;50.854;20.580;2023-05-19T01:30:55;99703.06;;;7.97;100.00
21760;BME280;11041;50.854;20.580;2023-05-19T01:33:23;99698.94;;;7.95;100.00
21760;BME280;11041;50.854;20.580;2023-05-19T01:35:52;99700.06;;;7.99;100.00
21760;BME280;11041;50.854;20.580;2023-05-19T01:38:19;99700.06;;;7.99;100.00
21760;BME280;11041;50.854;20.580;2023-05-19T01:40:49;99697.03;;;8.00;100.00
21760;BME280;11041;50.854;20.580;2023-05-19T01:43:22;99702.22;;;8.07;100.00
21760;BME280;11041;50.854;20.580;2023-05-19T01:45:50;99691.81;;;8.09;100.00
21760;BME280;11041;50.854;20.580;2023-05-19T01:48:18;99689.91;;;8.04;100.00
21760;BME280;11041;50.854;20.580;2023-05-19T01:50:45;99687.44;;;8.08;100.00
21760;BME280;11041;50.854;20.580;2023-05-19T01:53:12;99681.13;;;8.07;100.00
21760;BME280;11041;50.854;20.580;2023-05-19T01:55:52;99684.97;;;8.11;100.00
21760;BME280;11041;50.854;20.580;2023-05-19T01:58:45;99694.00;;;8.17;100.00
21760;BME280;11041;50.854;20.580;2023-05-19T02:01:47;99677.00;;;8.15;100.00
21760;BME280;11041;50.854;20.580;2023-05-19T02:04:47;99681.66;;;8.20;100.00
21760;BME280;11041;50.854;20.580;2023-05-19T02:07:48;99683.84;;;8.18;100.00
21760;BME280;11041;50.854;20.580;2023-05-19T02:10:28;99675.66;;;8.13;100.00
21760;BME280;11041;50.854;20.580;2023-05-19T02:13:00;99675.66;;;8.13;100.00
21760;BME280;11041;50.854;20.580;2023-05-19T02:15:39;99678.16;;;8.04;100.00
21760;BME280;11041;50.854;20.580;2023-05-19T02:18:11;99681.97;;;7.98;100.00
21760;BME280;11041;50.854;20.580;2023-05-19T02:20:43;99673.50;;;7.89;100.00
21760;BME280;11041;50.854;20.580;2023-05-19T02:23:09;99677.63;;;7.92;100.00
21760;BME280;11041;50.854;20.580;2023-05-19T02:25:36;99681.16;;;7.97;100.00
21760;BME280;11041;50.854;20.580;2023-05-19T02:28:02;99674.59;;;7.93;100.00
21760;BME280;11041;50.854;20.580;2023-05-19T02:30:29;99681.41;;;8.01;100.00
21760;BME280;11041;50.854;20.580;2023-05-19T02:32:57;99676.50;;;8.03;100.00
21760;BME280;11041;50.854;20.580;2023-05-19T02:35:23;99673.75;;;8.03;100.00
21760;BME280;11041;50.854;20.580;2023-05-19T02:37:49;99677.03;;;8.05;100.00
21760;BME280;11041;50.854;20.580;2023-05-19T02:40:17;99664.72;;;8.02;100.00
21760;BME280;11041;50.854;20.580;2023-05-19T02:42:43;99676.22;;;8.04;100.00
21760;BME280;11041;50.854;20.580;2023-05-19T02:45:10;99671.00;;;8.03;100.00
21760;BME280;11041;50.854;20.580;2023-05-19T02:47:36;99668.28;;;8.03;100.00
21760;BME280;11041;50.854;20.580;2023-05-19T02:50:05;99672.13;;;8.02;100.00
21760;BME280;11041;50.854;20.580;2023-05-19T02:52:31;99668.03;;;7.99;100.00
21760;BME280;11041;50.854;20.580;2023-05-19T02:54:58;99672.66;;;8.04;100.00
21760;BME280;11041;50.854;20.580;2023-05-19T02:57:24;99671.84;;;8.08;100.00
21760;BME280;11041;50.854;20.580;2023-05-19T02:59:52;99659.00;;;8.04;100.00
21760;BME280;11041;50.854;20.580;2023-05-19T03:02:18;99667.75;;;8.06;100.00
21760;BME280;11041;50.854;20.580;2023-05-19T03:04:45;99666.09;;;8.05;100.00
21760;BME280;11041;50.854;20.580;2023-05-19T03:07:11;99665.00;;;8.06;100.00
21760;BME280;11041;50.854;20.580;2023-05-19T03:09:41;99676.50;;;8.13;100.00
21760;BME280;11041;50.854;20.580;2023-05-19T03:12:08;99668.81;;;8.15;100.00
21760;BME280;11041;50.854;20.580;2023-05-19T03:14:35;99671.81;;;8.19;100.00
21760;BME280;11041;50.854;20.580;2023-05-19T03:17:04;99657.84;;;8.15;100.00
21760;BME280;11041;50.854;20.580;2023-05-19T03:19:33;99654.31;;;8.04;100.00
21760;BME280;11041;50.854;20.580;2023-05-19T03:21:59;99664.72;;;8.07;100.00
21760;BME280;11041;50.854;20.580;2023-05-19T03:24:26;99665.28;;;8.04;100.00
21760;BME280;11041;50.854;20.580;2023-05-19T03:26:52;99658.69;;;8.05;100.00
21760;BME280;11041;50.854;20.580;2023-05-19T03:29:19;99659.00;;;8.04;100.00
21760;BME280;11041;50.854;20.580;2023-05-19T03:31:45;99659.53;;;8.06;100.00
21760;BME280;11041;50.854;20.580;2023-05-19T03:34:12;99650.22;;;8.02;100.00
21760;BME280;11041;50.854;20.580;2023-05-19T03:36:38;99659.25;;;8.07;100.00
21760;BME280;11041;50.854;20.580;2023-05-19T03:39:05;99657.06;;;8.09;100.00
21760;BME280;11041;50.854;20.580;2023-05-19T03:41:32;99666.91;;;8.16;100.00
21760;BME280;11041;50.854;20.580;2023-05-19T03:43:59;99667.16;;;8.19;100.00
21760;BME280;11041;50.854;20.580;2023-05-19T03:46:25;99666.88;;;8.26;100.00
21760;BME280;11041;50.854;20.580;2023-05-19T03:48:52;99669.59;;;8.31;100.00
21760;BME280;11041;50.854;20.580;2023-05-19T03:51:18;99676.44;;;8.33;100.00
21760;BME280;11041;50.854;20.580;2023-05-19T03:53:45;99676.19;;;8.40;100.00
21760;BME280;11041;50.854;20.580;2023-05-19T03:56:11;99678.06;;;8.50;100.00
21760;BME280;11041;50.854;20.580;2023-05-19T03:58:39;99671.75;;;8.60;100.00
21760;BME280;11041;50.854;20.580;2023-05-19T04:01:10;99683.47;;;8.70;100.00
21760;BME280;11041;50.854;20.580;2023-05-19T04:03:36;99685.66;;;8.79;100.00
21760;BME280;11041;50.854;20.580;2023-05-19T04:06:03;99681.75;;;8.85;100.00
21760;BME280;11041;50.854;20.580;2023-05-19T04:08:29;99679.28;;;8.88;100.00
21760;BME280;11041;50.854;20.580;2023-05-19T04:10:56;99689.97;;;8.95;100.00
21760;BME280;11041;50.854;20.580;2023-05-19T04:13:23;99687.72;;;9.02;100.00
21760;BME280;11041;50.854;20.580;2023-05-19T04:15:50;99677.28;;;9.04;100.00
21760;BME280;11041;50.854;20.580;2023-05-19T04:18:16;99678.66;;;9.07;100.00
21760;BME280;11041;50.854;20.580;2023-05-19T04:20:43;99678.44;;;8.98;100.00
21760;BME280;11041;50.854;20.580;2023-05-19T04:23:09;99680.91;;;8.89;100.00
21760;BME280;11041;50.854;20.580;2023-05-19T04:25:36;99684.22;;;8.91;100.00
21760;BME280;11041;50.854;20.580;2023-05-19T04:28:03;99668.03;;;8.95;100.00
21760;BME280;11041;50.854;20.580;2023-05-19T04:30:29;99675.41;;;9.00;100.00
21760;BME280;11041;50.854;20.580;2023-05-19T04:32:56;99674.88;;;8.98;100.00
21760;BME280;11041;50.854;20.580;2023-05-19T04:35:23;99673.50;;;9.00;100.00
21760;BME280;11041;50.854;20.580;2023-05-19T04:37:50;99679.44;;;9.12;100.00
21760;BME280;11041;50.854;20.580;2023-05-19T04:40:19;99670.69;;;9.10;100.00
21760;BME280;11041;50.854;20.580;2023-05-19T04:42:51;99674.78;;;9.13;100.00
21760;BME280;11041;50.854;20.580;2023-05-19T04:45:19;99659.97;;;9.14;100.00
21760;BME280;11041;50.854;20.580;2023-05-19T04:47:46;99671.41;;;9.26;100.00
21760;BME280;11041;50.854;20.580;2023-05-19T04:50:13;99669.72;;;9.30;100.00
21760;BME280;11041;50.854;20.580;2023-05-19T04:52:41;99667.78;;;9.36;100.00
21760;BME280;11041;50.854;20.580;2023-05-19T04:55:10;99669.34;;;9.47;100.00
21760;BME280;11041;50.854;20.580;2023-05-19T04:57:38;99661.69;;;9.44;100.00
21760;BME280;11041;50.854;20.580;2023-05-19T05:00:10;99670.13;;;9.53;100.00
21760;BME280;11041;50.854;20.580;2023-05-19T05:02:44;99673.38;;;9.60;100.00
21760;BME280;11041;50.854;20.580;2023-05-19T05:05:28;99676.16;;;9.55;100.00
21760;BME280;11041;50.854;20.580;2023-05-19T05:08:23;99681.03;;;9.63;100.00
21760;BME280;11041;50.854;20.580;2023-05-19T05:10:51;99672.88;;;9.53;100.00
21760;BME280;11041;50.854;20.580;2023-05-19T05:13:22;99672.63;;;9.49;100.00
21760;BME280;11041;50.854;20.580;2023-05-19T05:15:49;99671.50;;;9.55;100.00
21760;BME280;11041;50.854;20.580;2023-05-19T05:18:20;99663.81;;;9.57;100.00
21760;BME280;11041;50.854;20.580;2023-05-19T05:20:47;99659.41;;;9.56;100.00
21760;BME280;11041;50.854;20.580;2023-05-19T05:23:14;99654.66;;;9.67;100.00
21760;BME280;11041;50.854;20.580;2023-05-19T05:25:42;99658.72;;;9.75;100.00
21760;BME280;11041;50.854;20.580;2023-05-19T05:28:09;99676.97;;;9.90;100.00
21760;BME280;11041;50.854;20.580;2023-05-19T05:30:36;99676.09;;;9.94;100.00
21760;BME280;11041;50.854;20.580;2023-05-19T05:33:03;99678.84;;;9.94;99.69
21760;BME280;11041;50.854;20.580;2023-05-19T05:35:29;99671.97;;;9.97;100.00
21760;BME280;11041;50.854;20.580;2023-05-19T05:37:56;99669.22;;;9.97;99.67
21760;BME280;11041;50.854;20.580;2023-05-19T05:40:22;99669.75;;;9.99;99.91
21760;BME280;11041;50.854;20.580;2023-05-19T05:42:49;99676.09;;;9.94;98.65
21760;BME280;11041;50.854;20.580;2023-05-19T05:45:16;99676.44;;;9.88;98.78
21760;BME280;11041;50.854;20.580;2023-05-19T05:47:43;99672.34;;;9.85;99.38
21760;BME280;11041;50.854;20.580;2023-05-19T05:50:11;99681.06;;;9.92;98.62
21760;BME280;11041;50.854;20.580;2023-05-19T05:52:40;99688.66;;;10.00;99.34
21760;BME280;11041;50.854;20.580;2023-05-19T05:55:09;99675.78;;;10.01;99.53
21760;BME280;11041;50.854;20.580;2023-05-19T05:57:36;99671.91;;;10.02;99.56
21760;BME280;11041;50.854;20.580;2023-05-19T06:00:04;99683.91;;;10.11;99.20
21760;BME280;11041;50.854;20.580;2023-05-19T06:02:45;99684.63;;;10.22;99.52
21760;BME280;11041;50.854;20.580;2023-05-19T06:05:12;99683.00;;;10.21;98.59
21760;BME280;11041;50.854;20.580;2023-05-19T06:07:40;99680.53;;;10.19;98.03
21760;BME280;11041;50.854;20.580;2023-05-19T06:10:08;99673.88;;;10.26;98.76
21760;BME280;11041;50.854;20.580;2023-05-19T06:12:35;99679.88;;;10.33;99.14
21760;BME280;11041;50.854;20.580;2023-05-19T06:15:06;99683.38;;;10.38;99.38
21760;BME280;11041;50.854;20.580;2023-05-19T06:17:33;99694.22;;;10.54;99.08
21760;BME280;11041;50.854;20.580;2023-05-19T06:20:04;99690.31;;;10.60;98.54
21760;BME280;11041;50.854;20.580;2023-05-19T06:22:31;99678.25;;;10.56;97.85
21760;BME280;11041;50.854;20.580;2023-05-19T06:24:58;99690.69;;;10.48;96.60
21760;BME280;11041;50.854;20.580;2023-05-19T06:27:25;99688.31;;;10.41;96.75
21760;BME280;11041;50.854;20.580;2023-05-19T06:29:52;99685.59;;;10.36;96.56
21760;BME280;11041;50.854;20.580;2023-05-19T06:32:18;99700.69;;;10.39;95.72
21760;BME280;11041;50.854;20.580;2023-05-19T06:34:45;99700.47;;;10.35;96.58
21760;BME280;11041;50.854;20.580;2023-05-19T06:37:22;99695.03;;;10.25;96.31
21760;BME280;11041;50.854;20.580;2023-05-19T06:39:51;99704.63;;;10.28;96.83
21760;BME280;11041;50.854;20.580;2023-05-19T06:42:19;99706.84;;;10.26;96.41
21760;BME280;11041;50.854;20.580;2023-05-19T06:44:48;99697.53;;;10.21;97.06
21760;BME280;11041;50.854;20.580;2023-05-19T06:47:16;99695.66;;;10.17;96.64
21760;BME280;11041;50.854;20.580;2023-05-19T06:49:47;99707.50;;;10.12;96.33
21760;BME280;11041;50.854;20.580;2023-05-19T06:52:16;99693.59;;;10.03;97.06
21760;BME280;11041;50.854;20.580;2023-05-19T06:54:43;99704.75;;;10.12;97.48
21760;BME280;11041;50.854;20.580;2023-05-19T06:57:09;99700.63;;;10.15;98.02
21760;BME280;11041;50.854;20.580;2023-05-19T06:59:36;99717.00;;;10.30;98.04
21760;BME280;11041;50.854;20.580;2023-05-19T07:02:03;99716.94;;;10.35;97.67
21760;BME280;11041;50.854;20.580;2023-05-19T07:04:29;99708.59;;;10.45;97.70
21760;BME280;11041;50.854;20.580;2023-05-19T07:06:56;99719.47;;;10.56;97.77
21760;BME280;11041;50.854;20.580;2023-05-19T07:09:22;99722.47;;;10.59;97.80
21760;BME280;11041;50.854;20.580;2023-05-19T07:11:49;99705.72;;;10.56;97.22
21760;BME280;11041;50.854;20.580;2023-05-19T07:14:15;99709.06;;;10.53;95.54
21760;BME280;11041;50.854;20.580;2023-05-19T07:16:45;99722.91;;;10.42;95.33
21760;BME280;11041;50.854;20.580;2023-05-19T07:19:11;99703.97;;;10.41;95.58
21760;BME280;11041;50.854;20.580;2023-05-19T07:21:38;99713.00;;;10.47;96.39
21760;BME280;11041;50.854;20.580;2023-05-19T07:24:05;99717.09;;;10.49;96.46
21760;BME280;11041;50.854;20.580;2023-05-19T07:26:32;99722.81;;;10.53;96.02
21760;BME280;11041;50.854;20.580;2023-05-19T07:28:58;99723.63;;;10.53;95.97
21760;BME280;11041;50.854;20.580;2023-05-19T07:31:25;99719.72;;;10.59;95.86
21760;BME280;11041;50.854;20.580;2023-05-19T07:33:52;99727.03;;;10.69;95.93
21760;BME280;11041;50.854;20.580;2023-05-19T07:36:18;99721.31;;;10.65;95.32
21760;BME280;11041;50.854;20.580;2023-05-19T07:38:45;99729.84;;;10.64;95.34
21760;BME280;11041;50.854;20.580;2023-05-19T07:41:12;99733.47;;;10.59;94.21
21760;BME280;11041;50.854;20.580;2023-05-19T07:43:39;99725.34;;;10.49;94.08
21760;BME280;11041;50.854;20.580;2023-05-19T07:46:06;99731.59;;;10.55;94.77
21760;BME280;11041;50.854;20.580;2023-05-19T07:48:32;99731.44;;;10.41;94.30
21760;BME280;11041;50.854;20.580;2023-05-19T07:50:59;99738.59;;;10.42;94.62
21760;BME280;11041;50.854;20.580;2023-05-19T07:53:25;99718.25;;;10.43;96.13
21760;BME280;11041;50.854;20.580;2023-05-19T07:55:53;99727.50;;;10.52;96.59
21760;BME280;11041;50.854;20.580;2023-05-19T07:58:20;99733.56;;;10.49;94.31
21760;BME280;11041;50.854;20.580;2023-05-19T08:01:09;99729.53;;;10.41;94.26
21760;BME280;11041;50.854;20.580;2023-05-19T08:03:35;99734.38;;;10.50;94.88
21760;BME280;11041;50.854;20.580;2023-05-19T08:06:02;99731.38;;;10.46;94.27
21760;BME280;11041;50.854;20.580;2023-05-19T08:08:29;99734.13;;;10.46;94.23
21760;BME280;11041;50.854;20.580;2023-05-19T08:10:56;99732.75;;;10.49;95.23
21760;BME280;11041;50.854;20.580;2023-05-19T08:13:22;99735.25;;;10.45;94.06
21760;BME280;11041;50.854;20.580;2023-05-19T08:15:49;99725.66;;;10.42;94.49
21760;BME280;11041;50.854;20.580;2023-05-19T08:18:15;99721.28;;;10.41;94.46
21760;BME280;11041;50.854;20.580;2023-05-19T08:20:42;99724.25;;;10.45;94.89
21760;BME280;11041;50.854;20.580;2023-05-19T08:23:09;99713.34;;;10.40;95.70
21760;BME280;11041;50.854;20.580;2023-05-19T08:25:35;99726.91;;;10.55;95.74
21760;BME280;11041;50.854;20.580;2023-05-19T08:28:02;99717.25;;;10.58;94.78
21760;BME280;11041;50.854;20.580;2023-05-19T08:30:29;99722.69;;;10.63;93.78
21760;BME280;11041;50.854;20.580;2023-05-19T08:32:55;99721.53;;;10.69;93.26
21760;BME280;11041;50.854;20.580;2023-05-19T08:35:22;99732.72;;;10.78;93.15
21760;BME280;11041;50.854;20.580;2023-05-19T08:37:48;99722.41;;;10.88;93.75
21760;BME280;11041;50.854;20.580;2023-05-19T08:40:19;99735.00;;;10.95;92.90
21760;BME280;11041;50.854;20.580;2023-05-19T08:42:46;99734.75;;;10.91;92.52
21760;BME280;11041;50.854;20.580;2023-05-19T08:45:14;99728.38;;;10.96;92.15
21760;BME280;11041;50.854;20.580;2023-05-19T08:47:41;99735.88;;;10.90;92.29
21760;BME280;11041;50.854;20.580;2023-05-19T08:50:16;99723.28;;;10.84;91.86
21760;BME280;11041;50.854;20.580;2023-05-19T08:53:13;99725.75;;;10.85;92.43
21760;BME280;11041;50.854;20.580;2023-05-19T08:56:23;99732.81;;;10.92;92.88
21760;BME280;11041;50.854;20.580;2023-05-19T08:58:52;99726.22;;;10.93;93.42
21760;BME280;11041;50.854;20.580;2023-05-19T09:01:21;99719.31;;;10.95;93.69
21760;BME280;11041;50.854;20.580;2023-05-19T09:03:47;99737.59;;;11.05;92.55
21760;BME280;11041;50.854;20.580;2023-05-19T09:06:14;99729.00;;;11.12;93.14
21760;BME280;11041;50.854;20.580;2023-05-19T09:08:42;99727.00;;;11.17;92.75
21760;BME280;11041;50.854;20.580;2023-05-19T09:11:10;99737.66;;;11.24;93.17
21760;BME280;11041;50.854;20.580;2023-05-19T09:13:37;99731.03;;;11.25;92.98
21760;BME280;11041;50.854;20.580;2023-05-19T09:16:04;99728.13;;;11.16;91.23
21760;BME280;11041;50.854;20.580;2023-05-19T09:18:31;99715.00;;;11.08;91.70
21760;BME280;11041;50.854;20.580;2023-05-19T09:21:00;99728.94;;;11.17;91.68
21760;BME280;11041;50.854;20.580;2023-05-19T09:23:30;99715.31;;;11.06;91.98
21760;BME280;11041;50.854;20.580;2023-05-19T09:26:04;99719.97;;;11.06;92.48
21760;BME280;11041;50.854;20.580;2023-05-19T09:28:35;99725.88;;;11.18;92.41
21760;BME280;11041;50.854;20.580;2023-05-19T09:31:05;99720.25;;;11.28;92.72
21760;BME280;11041;50.854;20.580;2023-05-19T09:33:34;99720.28;;;11.47;92.01
21760;BME280;11041;50.854;20.580;2023-05-19T09:36:02;99714.59;;;11.58;91.99
21760;BME280;11041;50.854;20.580;2023-05-19T09:38:31;99729.53;;;11.70;90.56
21760;BME280;11041;50.854;20.580;2023-05-19T09:41:00;99712.06;;;11.61;88.77
21760;BME280;11041;50.854;20.580;2023-05-19T09:43:31;99714.25;;;11.64;89.25
21760;BME280;11041;50.854;20.580;2023-05-19T09:46:06;99711.31;;;11.56;89.29
21760;BME280;11041;50.854;20.580;2023-05-19T09:48:36;99712.59;;;11.63;89.65
21760;BME280;11041;50.854;20.580;2023-05-19T09:51:06;99714.00;;;11.61;88.96
21760;BME280;11041;50.854;20.580;2023-05-19T09:53:33;99714.88;;;11.56;89.43
21760;BME280;11041;50.854;20.580;2023-05-19T09:56:01;99710.59;;;11.50;88.75
21760;BME280;11041;50.854;20.580;2023-05-19T09:58:32;99718.94;;;11.45;89.30
21760;BME280;11041;50.854;20.580;2023-05-19T10:01:00;99716.19;;;11.45;89.64
21760;BME280;11041;50.854;20.580;2023-05-19T10:03:30;99714.75;;;11.47;90.44
21760;BME280;11041;50.854;20.580;2023-05-19T10:06:00;99716.47;;;11.62;90.30
21760;BME280;11041;50.854;20.580;2023-05-19T10:08:28;99724.28;;;11.74;90.15
21760;BME280;11041;50.854;20.580;2023-05-19T10:10:56;99706.91;;;11.73;88.62
21760;BME280;11041;50.854;20.580;2023-05-19T10:13:24;99717.03;;;11.78;88.60
21760;BME280;11041;50.854;20.580;2023-05-19T10:15:52;99713.91;;;11.85;88.96
21760;BME280;11041;50.854;20.580;2023-05-19T10:18:24;99714.72;;;11.85;89.11
21760;BME280;11041;50.854;20.580;2023-05-19T10:20:53;99702.31;;;11.88;89.45
21760;BME280;11041;50.854;20.580;2023-05-19T10:23:19;99709.91;;;11.96;89.80
21760;BME280;11041;50.854;20.580;2023-05-19T10:25:50;99709.72;;;12.06;89.34
21760;BME280;11041;50.854;20.580;2023-05-19T10:28:21;99708.22;;;12.14;89.19
21760;BME280;11041;50.854;20.580;2023-05-19T10:30:57;99697.50;;;12.12;88.73
21760;BME280;11041;50.854;20.580;2023-05-19T10:36:41;99695.13;;;12.06;87.50
21760;BME280;11041;50.854;20.580;2023-05-19T10:39:21;99706.88;;;12.11;88.33
21760;BME280;11041;50.854;20.580;2023-05-19T10:42:15;99712.72;;;12.10;87.96
21760;BME280;11041;50.854;20.580;2023-05-19T10:45:12;99707.16;;;11.96;87.89
21760;BME280;11041;50.854;20.580;2023-05-19T10:47:43;99700.00;;;11.76;88.56
21760;BME280;11041;50.854;20.580;2023-05-19T10:50:10;99700.22;;;11.80;88.53
21760;BME280;11041;50.854;20.580;2023-05-19T10:52:38;99710.50;;;11.74;88.78
21760;BME280;11041;50.854;20.580;2023-05-19T10:55:11;99706.09;;;11.73;89.08
21760;BME280;11041;50.854;20.580;2023-05-19T10:57:54;99700.69;;;11.68;89.79
21760;BME280;11041;50.854;20.580;2023-05-19T11:00:29;99700.47;;;11.64;89.33
21760;BME280;11041;50.854;20.580;2023-05-19T11:03:16;99706.34;;;11.77;89.78
21760;BME280;11041;50.854;20.580;2023-05-19T11:05:43;99712.84;;;11.81;89.08
21760;BME280;11041;50.854;20.580;2023-05-19T11:08:12;99701.94;;;11.76;89.68
21760;BME280;11041;50.854;20.580;2023-05-19T11:10:38;99707.81;;;11.88;90.12
21760;BME280;11041;50.854;20.580;2023-05-19T11:13:18;99718.69;;;11.98;89.75
21760;BME280;11041;50.854;20.580;2023-05-19T11:15:46;99708.69;;;12.02;88.52
21760;BME280;11041;50.854;20.580;2023-05-19T11:18:13;99703.63;;;11.90;88.05
21760;BME280;11041;50.854;20.580;2023-05-19T11:20:42;99712.94;;;11.94;88.41
21760;BME280;11041;50.854;20.580;2023-05-19T11:23:15;99712.75;;;12.05;88.73
21760;BME280;11041;50.854;20.580;2023-05-19T11:25:51;99722.50;;;12.16;88.88
21760;BME280;11041;50.854;20.580;2023-05-19T11:28:22;99713.63;;;12.19;88.38
21760;BME280;11041;50.854;20.580;2023-05-19T11:30:55;99713.44;;;12.15;88.53
21760;BME280;11041;50.854;20.580;2023-05-19T11:33:25;99719.38;;;12.23;89.04
21760;BME280;11041;50.854;20.580;2023-05-19T11:35:56;99720.31;;;12.32;89.30
21760;BME280;11041;50.854;20.580;2023-05-19T11:38:24;99718.56;;;12.36;89.01
21760;BME280;11041;50.854;20.580;2023-05-19T11:40:55;99727.78;;;12.45;88.65
21760;BME280;11041;50.854;20.580;2023-05-19T11:43:25;99717.88;;;12.44;87.94
21760;BME280;11041;50.854;20.580;2023-05-19T11:45:53;99717.84;;;12.30;86.71
21760;BME280;11041;50.854;20.580;2023-05-19T11:48:21;99723.75;;;12.24;87.17
21760;BME280;11041;50.854;20.580;2023-05-19T11:50:48;99717.22;;;12.20;87.37
21760;BME280;11041;50.854;20.580;2023-05-19T11:53:17;99728.81;;;12.17;87.40
21760;BME280;11041;50.854;20.580;2023-05-19T11:55:46;99719.47;;;12.18;87.46
21760;BME280;11041;50.854;20.580;2023-05-19T11:58:13;99721.88;;;12.19;88.23
21760;BME280;11041;50.854;20.580;2023-05-19T12:00:42;99722.84;;;12.28;88.28
21760;BME280;11041;50.854;20.580;2023-05-19T12:03:11;99725.72;;;12.37;88.83
21760;BME280;11041;50.854;20.580;2023-05-19T12:05:43;99726.44;;;12.43;88.38
21760;BME280;11041;50.854;20.580;2023-05-19T12:08:11;99732.91;;;12.52;88.51
21760;BME280;11041;50.854;20.580;2023-05-19T12:10:39;99731.03;;;12.47;88.26
21760;BME280;11041;50.854;20.580;2023-05-19T12:13:06;99727.78;;;12.45;87.84
21760;BME280;11041;50.854;20.580;2023-05-19T12:15:34;99730.22;;;12.47;88.43
21760;BME280;11041;50.854;20.580;2023-05-19T12:18:02;99723.28;;;12.49;88.80
21760;BME280;11041;50.854;20.580;2023-05-19T12:20:30;99718.97;;;12.43;88.10
21760;BME280;11041;50.854;20.580;2023-05-19T12:23:01;99729.09;;;12.48;88.51
21760;BME280;11041;50.854;20.580;2023-05-19T12:25:29;99727.19;;;12.48;87.97
21760;BME280;11041;50.854;20.580;2023-05-19T12:28:01;99721.34;;;12.50;88.43
21760;BME280;11041;50.854;20.580;2023-05-19T12:30:31;99721.47;;;12.58;88.56
21760;BME280;11041;50.854;20.580;2023-05-19T12:32:58;99714.41;;;12.52;88.16
21760;BME280;11041;50.854;20.580;2023-05-19T12:35:30;99706.63;;;12.41;87.62
21760;BME280;11041;50.854;20.580;2023-05-19T12:38:03;99703.28;;;12.44;88.39
21760;BME280;11041;50.854;20.580;2023-05-19T12:40:32;99704.50;;;12.51;88.51
21760;BME280;11041;50.854;20.580;2023-05-19T12:42:59;99711.47;;;12.49;87.74
21760;BME280;11041;50.854;20.580;2023-05-19T12:45:25;99716.06;;;12.53;88.01
21760;BME280;11041;50.854;20.580;2023-05-19T12:47:55;99715.72;;;12.55;88.22
21760;BME280;11041;50.854;20.580;2023-05-19T12:50:29;99715.34;;;12.62;88.25
21760;BME280;11041;50.854;20.580;2023-05-19T12:52:56;99721.88;;;12.66;88.05
21760;BME280;11041;50.854;20.580;2023-05-19T12:55:24;99713.91;;;12.64;88.52
21760;BME280;11041;50.854;20.580;2023-05-19T12:57:51;99718.81;;;12.67;88.26
21760;BME280;11041;50.854;20.580;2023-05-19T13:00:26;99713.09;;;12.64;88.60
21760;BME280;11041;50.854;20.580;2023-05-19T13:02:59;99713.81;;;12.69;88.61
21760;BME280;11041;50.854;20.580;2023-05-19T13:05:27;99706.16;;;12.66;88.29
21760;BME280;11041;50.854;20.580;2023-05-19T13:08:06;99706.84;;;12.72;88.59
21760;BME280;11041;50.854;20.580;2023-05-19T13:10:35;99713.94;;;12.78;89.01
21760;BME280;11041;50.854;20.580;2023-05-19T13:13:03;99706.47;;;12.78;88.90
21760;BME280;11041;50.854;20.580;2023-05-19T13:15:32;99702.88;;;12.78;88.79